sensor_id;sensor_type;location;lat;lon;timestamp;pressure;altitude;pressure_sealevel;temperature;humidity
31096;BME280;17749;51.962;8.560;2023-03-12T06:02:35;99481.81;;;-1.12;100.00
31096;BME280;17749;51.962;8.560;2023-03-12T06:05:19;99486.13;;;-1.08;100.00
31096;BME280;17749;51.962;8.560;2023-03-12T06:08:01;99487.88;;;-1.04;100.00
31096;BME280;17749;51.962;8.560;2023-03-12T06:10:45;99481.81;;;-1.12;100.00
31096;BME280;17749;51.962;8.560;2023-03-12T06:13:17;99494.84;;;-1.03;100.00
31096;BME280;17749;51.962;8.560;2023-03-12T06:15:47;99498.31;;;-0.98;100.00
31096;BME280;17749;51.962;8.560;2023-03-12T06:18:26;99500.91;;;-0.93;100.00
31096;BME280;17749;51.962;8.560;2023-03-12T06:21:18;99487.84;;;-0.95;100.00
31096;BME280;17749;51.962;8.560;2023-03-12T06:24:01;99472.16;;;-0.92;100.00
31096;BME280;17749;51.962;8.560;2023-03-12T06:27:06;99473.00;;;-0.83;100.00
31096;BME280;17749;51.962;8.560;2023-03-12T06:29:38;99468.66;;;-0.88;100.00
31096;BME280;17749;51.962;8.560;2023-03-12T06:32:20;99458.16;;;-0.81;100.00
31096;BME280;17749;51.962;8.560;2023-03-12T06:35:03;99464.22;;;-0.72;100.00
31096;BME280;17749;51.962;8.560;2023-03-12T06:37:33;99458.09;;;-0.69;100.00
31096;BME280;17749;51.962;8.560;2023-03-12T06:40:01;99456.34;;;-0.64;100.00
31096;BME280;17749;51.962;8.560;2023-03-12T06:42:30;99450.22;;;-0.58;100.00
31096;BME280;17749;51.962;8.560;2023-03-12T06:44:57;99451.06;;;-0.53;100.00
31096;BME280;17749;51.962;8.560;2023-03-12T06:47:24;99453.66;;;-0.52;100.00
31096;BME280;17749;51.962;8.560;2023-03-12T06:49:51;99452.78;;;-0.49;100.00
31096;BME280;17749;51.962;8.560;2023-03-12T06:52:18;99451.91;;;-0.47;100.00
31096;BME280;17749;51.962;8.560;2023-03-12T06:54:45;99448.38;;;-0.42;100.00
31096;BME280;17749;51.962;8.560;2023-03-12T06:57:12;99439.63;;;-0.34;100.00
31096;BME280;17749;51.962;8.560;2023-03-12T06:59:39;99439.56;;;-0.29;100.00
31096;BME280;17749;51.962;8.560;2023-03-12T07:02:09;99438.66;;;-0.25;100.00
31096;BME280;17749;51.962;8.560;2023-03-12T07:04:36;99435.13;;;-0.18;100.00
31096;BME280;17749;51.962;8.560;2023-03-12T07:07:03;99436.81;;;-0.11;100.00
31096;BME280;17749;51.962;8.560;2023-03-12T07:09:30;99449.84;;;0.00;100.00
31096;BME280;17749;51.962;8.560;2023-03-12T07:11:57;99449.78;;;0.06;100.00
31096;BME280;17749;51.962;8.560;2023-03-12T07:14:24;99443.63;;;0.12;100.00
31096;BME280;17749;51.962;8.560;2023-03-12T07:16:52;99444.44;;;0.15;100.00
31096;BME280;17749;51.962;8.560;2023-03-12T07:19:19;99433.09;;;0.18;100.00
31096;BME280;17749;51.962;8.560;2023-03-12T07:21:46;99442.63;;;0.25;100.00
31096;BME280;17749;51.962;8.560;2023-03-12T07:24:12;99446.97;;;0.26;100.00
31096;BME280;17749;51.962;8.560;2023-03-12T07:26:39;99453.97;;;0.27;100.00
31096;BME280;17749;51.962;8.560;2023-03-12T07:29:06;99448.66;;;0.33;100.00
31096;BME280;17749;51.962;8.560;2023-03-12T07:31:33;99453.84;;;0.42;100.00
31096;BME280;17749;51.962;8.560;2023-03-12T07:34:00;99454.63;;;0.49;100.00
31096;BME280;17749;51.962;8.560;2023-03-12T07:36:28;99440.66;;;0.50;100.00
31096;BME280;17749;51.962;8.560;2023-03-12T07:38:56;99438.00;;;0.52;100.00
31096;BME280;17749;51.962;8.560;2023-03-12T07:41:22;99438.84;;;0.57;100.00
31096;BME280;17749;51.962;8.560;2023-03-12T07:43:50;99443.13;;;0.64;100.00
31096;BME280;17749;51.962;8.560;2023-03-12T07:46:17;99433.50;;;0.66;100.00
31096;BME280;17749;51.962;8.560;2023-03-12T07:48:44;99424.72;;;0.70;100.00
31096;BME280;17749;51.962;8.560;2023-03-12T07:51:11;99430.81;;;0.72;100.00
31096;BME280;17749;51.962;8.560;2023-03-12T07:53:38;99434.28;;;0.73;100.00
31096;BME280;17749;51.962;8.560;2023-03-12T07:56:05;99425.53;;;0.77;100.00
31096;BME280;17749;51.962;8.560;2023-03-12T07:58:32;99420.25;;;0.78;100.00
31096;BME280;17749;51.962;8.560;2023-03-12T08:01:02;99419.34;;;0.84;100.00
31096;BME280;17749;51.962;8.560;2023-03-12T08:03:29;99412.25;;;0.89;100.00
31096;BME280;17749;51.962;8.560;2023-03-12T08:05:58;99396.44;;;0.97;100.00
31096;BME280;17749;51.962;8.560;2023-03-12T08:08:26;99385.84;;;1.04;100.00
31096;BME280;17749;51.962;8.560;2023-03-12T08:10:54;99398.81;;;1.15;100.00
31096;BME280;17749;51.962;8.560;2023-03-12T08:13:21;99393.44;;;1.27;100.00
31096;BME280;17749;51.962;8.560;2023-03-12T08:15:51;99394.13;;;1.39;100.00
31096;BME280;17749;51.962;8.560;2023-03-12T08:18:18;99386.16;;;1.46;100.00
31096;BME280;17749;51.962;8.560;2023-03-12T08:20:49;99388.81;;;1.45;100.00
31096;BME280;17749;51.962;8.560;2023-03-12T08:23:16;99382.66;;;1.47;100.00
31096;BME280;17749;51.962;8.560;2023-03-12T08:25:47;99386.00;;;1.57;100.00
31096;BME280;17749;51.962;8.560;2023-03-12T08:28:15;99385.97;;;1.60;100.00
31096;BME280;17749;51.962;8.560;2023-03-12T08:30:47;99381.53;;;1.64;100.00
31096;BME280;17749;51.962;8.560;2023-03-12T08:33:15;99375.38;;;1.66;100.00
31096;BME280;17749;51.962;8.560;2023-03-12T08:35:41;99372.75;;;1.66;100.00
31096;BME280;17749;51.962;8.560;2023-03-12T08:38:08;99380.59;;;1.68;100.00
31096;BME280;17749;51.962;8.560;2023-03-12T08:40:35;99376.22;;;1.68;100.00
31096;BME280;17749;51.962;8.560;2023-03-12T08:43:03;99389.22;;;1.74;100.00
31096;BME280;17749;51.962;8.560;2023-03-12T08:45:30;99390.88;;;1.82;100.00
31096;BME280;17749;51.962;8.560;2023-03-12T08:47:57;99388.16;;;1.88;100.00
31096;BME280;17749;51.962;8.560;2023-03-12T08:50:24;99383.72;;;1.91;100.00
31096;BME280;17749;51.962;8.560;2023-03-12T08:52:54;99381.09;;;1.91;100.00
31096;BME280;17749;51.962;8.560;2023-03-12T08:55:22;99383.63;;;1.96;100.00
31096;BME280;17749;51.962;8.560;2023-03-12T08:57:48;99380.19;;;1.92;100.00
31096;BME280;17749;51.962;8.560;2023-03-12T09:00:16;99377.59;;;1.91;100.00
31096;BME280;17749;51.962;8.560;2023-03-12T09:02:44;99378.38;;;1.96;100.00
31096;BME280;17749;51.962;8.560;2023-03-12T09:05:12;99375.78;;;1.94;100.00
31096;BME280;17749;51.962;8.560;2023-03-12T09:07:39;99376.72;;;1.92;100.00
31096;BME280;17749;51.962;8.560;2023-03-12T09:10:07;99381.09;;;1.91;100.00
31096;BME280;17749;51.962;8.560;2023-03-12T09:12:35;99386.34;;;1.91;100.00
31096;BME280;17749;51.962;8.560;2023-03-12T09:15:02;99386.25;;;1.96;100.00
31096;BME280;17749;51.962;8.560;2023-03-12T09:17:30;99387.16;;;1.95;100.00
31096;BME280;17749;51.962;8.560;2023-03-12T09:19:57;99387.16;;;1.95;100.00
31096;BME280;17749;51.962;8.560;2023-03-12T09:22:28;99385.38;;;1.97;100.00
31096;BME280;17749;51.962;8.560;2023-03-12T09:24:55;99381.00;;;1.96;100.00
31096;BME280;17749;51.962;8.560;2023-03-12T09:27:22;99376.53;;;2.03;100.00
31096;BME280;17749;51.962;8.560;2023-03-12T09:29:49;99368.59;;;2.07;100.00
31096;BME280;17749;51.962;8.560;2023-03-12T09:32:27;99372.03;;;2.09;100.00
31096;BME280;17749;51.962;8.560;2023-03-12T09:34:54;99377.25;;;2.12;100.00
31096;BME280;17749;51.962;8.560;2023-03-12T09:37:21;99377.28;;;2.09;100.00
31096;BME280;17749;51.962;8.560;2023-03-12T09:39:51;99376.53;;;2.03;100.00
31096;BME280;17749;51.962;8.560;2023-03-12T09:42:25;99382.72;;;1.98;100.00
31096;BME280;17749;51.962;8.560;2023-03-12T09:44:56;99381.97;;;1.92;100.00
31096;BME280;17749;51.962;8.560;2023-03-12T09:47:29;99380.22;;;1.91;100.00
31096;BME280;17749;51.962;8.560;2023-03-12T09:50:05;99369.75;;;1.88;100.00
31096;BME280;17749;51.962;8.560;2023-03-12T09:52:48;99361.03;;;1.87;100.00
31096;BME280;17749;51.962;8.560;2023-03-12T09:55:19;99363.84;;;1.77;100.00
31096;BME280;17749;51.962;8.560;2023-03-12T09:57:48;99358.53;;;1.81;100.00
31096;BME280;17749;51.962;8.560;2023-03-12T10:00:21;99359.38;;;1.80;100.00
31096;BME280;17749;51.962;8.560;2023-03-12T10:05:37;99352.41;;;1.79;100.00
31096;BME280;17749;51.962;8.560;2023-03-12T10:08:15;99356.88;;;1.74;100.00
31096;BME280;17749;51.962;8.560;2023-03-12T10:22:54;99331.38;;;1.81;100.00
31096;BME280;17749;51.962;8.560;2023-03-12T10:28:17;99320.94;;;1.78;100.00
31096;BME280;17749;51.962;8.560;2023-03-12T10:30:50;99320.00;;;1.82;100.00
31096;BME280;17749;51.962;8.560;2023-03-12T10:33:24;99319.16;;;1.80;100.00
31096;BME280;17749;51.962;8.560;2023-03-12T10:36:22;99318.22;;;1.82;100.00
31096;BME280;17749;51.962;8.560;2023-03-12T10:38:50;99321.78;;;1.80;100.00
31096;BME280;17749;51.962;8.560;2023-03-12T10:41:21;99319.16;;;1.78;100.00
31096;BME280;17749;51.962;8.560;2023-03-12T10:43:48;99323.56;;;1.78;100.00
31096;BME280;17749;51.962;8.560;2023-03-12T10:51:55;99327.81;;;1.85;100.00
31096;BME280;17749;51.962;8.560;2023-03-12T10:54:35;99334.91;;;1.80;100.00
31096;BME280;17749;51.962;8.560;2023-03-12T10:57:03;99334.13;;;1.74;100.00
31096;BME280;17749;51.962;8.560;2023-03-12T10:59:34;99321.84;;;1.77;100.00
31096;BME280;17749;51.962;8.560;2023-03-12T11:02:11;99320.06;;;1.79;100.00
31096;BME280;17749;51.962;8.560;2023-03-12T11:04:50;99314.69;;;1.85;100.00
31096;BME280;17749;51.962;8.560;2023-03-12T11:07:30;99319.00;;;1.89;100.00
31096;BME280;17749;51.962;8.560;2023-03-12T11:10:22;99325.97;;;1.90;100.00
31096;BME280;17749;51.962;8.560;2023-03-12T11:17:47;99306.00;;;1.81;100.00
31096;BME280;17749;51.962;8.560;2023-03-12T11:22:47;99301.56;;;1.86;100.00
31096;BME280;17749;51.962;8.560;2023-03-12T11:27:52;99291.78;;;1.94;100.00
31096;BME280;17749;51.962;8.560;2023-03-12T11:30:23;99297.94;;;1.92;100.00
31096;BME280;17749;51.962;8.560;2023-03-12T11:32:51;99297.03;;;1.94;100.00
31096;BME280;17749;51.962;8.560;2023-03-12T11:35:31;99296.03;;;2.00;100.00
31096;BME280;17749;51.962;8.560;2023-03-12T11:38:27;99288.94;;;2.05;100.00
31096;BME280;17749;51.962;8.560;2023-03-12T11:41:13;99291.50;;;2.10;100.00
31096;BME280;17749;51.962;8.560;2023-03-12T11:43:51;99302.81;;;2.13;100.00
31096;BME280;17749;51.962;8.560;2023-03-12T11:46:47;99308.84;;;2.17;100.00
31096;BME280;17749;51.962;8.560;2023-03-12T11:49:38;99302.81;;;2.13;100.00
31096;BME280;17749;51.962;8.560;2023-03-12T11:52:21;99290.50;;;2.15;100.00
31096;BME280;17749;51.962;8.560;2023-03-12T11:58:05;99294.78;;;2.21;100.00
31096;BME280;17749;51.962;8.560;2023-03-12T12:08:52;99272.00;;;2.22;100.00
31096;BME280;17749;51.962;8.560;2023-03-12T12:11:51;99271.06;;;2.24;100.00
31096;BME280;17749;51.962;8.560;2023-03-12T12:14:47;99272.84;;;2.24;100.00
31096;BME280;17749;51.962;8.560;2023-03-12T12:17:24;99262.41;;;2.21;100.00
31096;BME280;17749;51.962;8.560;2023-03-12T12:20:20;99243.09;;;2.22;100.00
31096;BME280;17749;51.962;8.560;2023-03-12T12:29:14;99254.94;;;2.41;100.00
31096;BME280;17749;51.962;8.560;2023-03-12T12:31:56;99252.31;;;2.41;100.00
31096;BME280;17749;51.962;8.560;2023-03-12T12:34:49;99251.25;;;2.51;100.00
31096;BME280;17749;51.962;8.560;2023-03-12T12:37:40;99249.44;;;2.53;100.00
31096;BME280;17749;51.962;8.560;2023-03-12T12:42:49;99254.59;;;2.59;100.00
31096;BME280;17749;51.962;8.560;2023-03-12T12:45:18;99235.22;;;2.63;100.00
31096;BME280;17749;51.962;8.560;2023-03-12T12:48:16;99238.53;;;2.72;100.00
31096;BME280;17749;51.962;8.560;2023-03-12T12:50:45;99235.88;;;2.73;100.00
31096;BME280;17749;51.962;8.560;2023-03-12T12:53:25;99246.31;;;2.78;100.00
31096;BME280;17749;51.962;8.560;2023-03-12T12:59:04;99235.56;;;2.87;100.00
31096;BME280;17749;51.962;8.560;2023-03-12T13:01:35;99231.06;;;2.94;100.00
31096;BME280;17749;51.962;8.560;2023-03-12T13:04:09;99235.31;;;2.98;100.00
31096;BME280;17749;51.962;8.560;2023-03-12T13:07:03;99234.31;;;3.03;100.00
31096;BME280;17749;51.962;8.560;2023-03-12T13:09:57;99235.97;;;3.07;100.00
31096;BME280;17749;51.962;8.560;2023-03-12T13:12:50;99228.00;;;3.12;100.00
31096;BME280;17749;51.962;8.560;2023-03-12T13:28:33;99230.19;;;3.29;100.00
31096;BME280;17749;51.962;8.560;2023-03-12T13:36:26;99230.94;;;3.36;100.00
31096;BME280;17749;51.962;8.560;2023-03-12T13:49:23;99222.50;;;3.56;100.00
31096;BME280;17749;51.962;8.560;2023-03-12T13:51:58;99225.00;;;3.62;100.00
31096;BME280;17749;51.962;8.560;2023-03-12T13:54:39;99226.63;;;3.66;100.00
31096;BME280;17749;51.962;8.560;2023-03-12T13:57:32;99209.97;;;3.67;100.00
31096;BME280;17749;51.962;8.560;2023-03-12T14:00:34;99200.97;;;3.74;100.00
31096;BME280;17749;51.962;8.560;2023-03-12T14:05:25;99208.63;;;3.83;100.00
31096;BME280;17749;51.962;8.560;2023-03-12T14:10:45;99202.22;;;3.93;100.00
31096;BME280;17749;51.962;8.560;2023-03-12T14:13:33;99203.94;;;3.94;100.00
31096;BME280;17749;51.962;8.560;2023-03-12T14:16:18;99185.38;;;3.99;100.00
31096;BME280;17749;51.962;8.560;2023-03-12T14:18:49;99197.28;;;4.12;100.00
31096;BME280;17749;51.962;8.560;2023-03-12T14:21:17;99194.44;;;4.20;100.00
31096;BME280;17749;51.962;8.560;2023-03-12T14:23:53;99187.72;;;4.39;100.00
31096;BME280;17749;51.962;8.560;2023-03-12T14:26:27;99191.91;;;4.47;100.00
31096;BME280;17749;51.962;8.560;2023-03-12T14:29:03;99192.31;;;4.63;100.00
31096;BME280;17749;51.962;8.560;2023-03-12T14:31:32;99198.28;;;4.69;100.00
31096;BME280;17749;51.962;8.560;2023-03-12T14:34:08;99205.94;;;4.77;100.00
31096;BME280;17749;51.962;8.560;2023-03-12T14:36:46;99209.97;;;4.89;100.00
31096;BME280;17749;51.962;8.560;2023-03-12T14:39:30;99213.22;;;4.97;100.00
31096;BME280;17749;51.962;8.560;2023-03-12T14:42:03;99210.19;;;5.09;100.00
31096;BME280;17749;51.962;8.560;2023-03-12T14:44:33;99215.59;;;5.06;100.00
31096;BME280;17749;51.962;8.560;2023-03-12T14:47:02;99218.13;;;5.09;100.00
31096;BME280;17749;51.962;8.560;2023-03-12T14:49:30;99211.63;;;5.19;100.00
31096;BME280;17749;51.962;8.560;2023-03-12T14:51:57;99216.84;;;5.21;100.00
31096;BME280;17749;51.962;8.560;2023-03-12T14:54:26;99210.78;;;5.19;100.00
31096;BME280;17749;51.962;8.560;2023-03-12T14:56:54;99214.78;;;5.31;100.00
31096;BME280;17749;51.962;8.560;2023-03-12T14:59:23;99220.78;;;5.36;100.00
31096;BME280;17749;51.962;8.560;2023-03-12T15:01:50;99213.78;;;5.35;100.00
31096;BME280;17749;51.962;8.560;2023-03-12T15:04:21;99206.75;;;5.34;100.00
31096;BME280;17749;51.962;8.560;2023-03-12T15:07:00;99207.28;;;5.45;100.00
31096;BME280;17749;51.962;8.560;2023-03-12T15:09:33;99201.09;;;5.44;100.00
31096;BME280;17749;51.962;8.560;2023-03-12T15:12:02;99206.34;;;5.46;100.00
31096;BME280;17749;51.962;8.560;2023-03-12T15:14:32;99206.03;;;5.55;100.00
31096;BME280;17749;51.962;8.560;2023-03-12T15:17:02;99208.41;;;5.63;100.00
31096;BME280;17749;51.962;8.560;2023-03-12T15:19:38;99203.13;;;5.63;100.00
31096;BME280;17749;51.962;8.560;2023-03-12T15:22:09;99201.38;;;5.63;100.00
31096;BME280;17749;51.962;8.560;2023-03-12T15:24:39;99189.88;;;5.64;100.00
31096;BME280;17749;51.962;8.560;2023-03-12T15:29:58;99180.47;;;5.82;100.00
31096;BME280;17749;51.962;8.560;2023-03-12T15:32:27;99178.44;;;5.89;100.00
31096;BME280;17749;51.962;8.560;2023-03-12T15:34:56;99176.31;;;6.00;100.00
31096;BME280;17749;51.962;8.560;2023-03-12T15:37:31;99180.81;;;5.98;100.00
31096;BME280;17749;51.962;8.560;2023-03-12T15:40:03;99179.88;;;5.99;100.00
31096;BME280;17749;51.962;8.560;2023-03-12T15:42:40;99179.75;;;6.02;100.00
31096;BME280;17749;51.962;8.560;2023-03-12T15:45:24;99183.88;;;6.11;100.00
31096;BME280;17749;51.962;8.560;2023-03-12T15:47:54;99190.81;;;6.13;100.00
31096;BME280;17749;51.962;8.560;2023-03-12T15:55:30;99187.47;;;6.08;100.00
31096;BME280;17749;51.962;8.560;2023-03-12T15:57:58;99178.56;;;6.11;100.00
31096;BME280;17749;51.962;8.560;2023-03-12T16:00:29;99189.66;;;6.21;100.00
31096;BME280;17749;51.962;8.560;2023-03-12T16:03:01;99185.88;;;6.28;100.00
31096;BME280;17749;51.962;8.560;2023-03-12T16:05:35;99182.22;;;6.32;100.00
31096;BME280;17749;51.962;8.560;2023-03-12T16:08:21;99185.63;;;6.34;100.00
31096;BME280;17749;51.962;8.560;2023-03-12T16:10:49;99183.69;;;6.39;100.00
31096;BME280;17749;51.962;8.560;2023-03-12T16:16:05;99181.09;;;6.38;100.00
31096;BME280;17749;51.962;8.560;2023-03-12T16:18:32;99184.56;;;6.40;100.00
31096;BME280;17749;51.962;8.560;2023-03-12T16:20:59;99183.59;;;6.42;100.00
31096;BME280;17749;51.962;8.560;2023-03-12T16:23:26;99179.19;;;6.41;100.00
31096;BME280;17749;51.962;8.560;2023-03-12T16:25:53;99175.88;;;6.36;100.00
31096;BME280;17749;51.962;8.560;2023-03-12T16:28:22;99181.16;;;6.36;100.00
31096;BME280;17749;51.962;8.560;2023-03-12T16:30:50;99170.41;;;6.41;100.00
31096;BME280;17749;51.962;8.560;2023-03-12T16:33:20;99176.34;;;6.47;100.00
31096;BME280;17749;51.962;8.560;2023-03-12T16:35:47;99175.38;;;6.50;100.00
31096;BME280;17749;51.962;8.560;2023-03-12T16:38:15;99173.69;;;6.47;100.00
31096;BME280;17749;51.962;8.560;2023-03-12T16:40:44;99166.53;;;6.49;100.00
31096;BME280;17749;51.962;8.560;2023-03-12T16:43:16;99176.91;;;6.55;100.00
31096;BME280;17749;51.962;8.560;2023-03-12T16:45:44;99183.09;;;6.54;100.00
31096;BME280;17749;51.962;8.560;2023-03-12T16:48:21;99197.25;;;6.53;100.00
31096;BME280;17749;51.962;8.560;2023-03-12T16:50:52;99194.84;;;6.47;100.00
31096;BME280;17749;51.962;8.560;2023-03-12T16:53:20;99201.91;;;6.47;100.00
31096;BME280;17749;51.962;8.560;2023-03-12T16:56:41;99197.66;;;6.43;100.00
31096;BME280;17749;51.962;8.560;2023-03-12T16:59:09;99200.31;;;6.43;100.00
31096;BME280;17749;51.962;8.560;2023-03-12T17:01:38;99197.72;;;6.41;100.00
31096;BME280;17749;51.962;8.560;2023-03-12T17:04:05;99196.84;;;6.41;100.00
31096;BME280;17749;51.962;8.560;2023-03-12T17:06:32;99194.84;;;6.47;100.00
31096;BME280;17749;51.962;8.560;2023-03-12T17:08:59;99198.25;;;6.51;100.00
31096;BME280;17749;51.962;8.560;2023-03-12T17:11:29;99203.56;;;6.49;100.00
31096;BME280;17749;51.962;8.560;2023-03-12T17:14:00;99201.06;;;6.46;100.00
31096;BME280;17749;51.962;8.560;2023-03-12T17:16:28;99204.63;;;6.45;100.00
31096;BME280;17749;51.962;8.560;2023-03-12T17:18:55;99199.34;;;6.45;100.00
31096;BME280;17749;51.962;8.560;2023-03-12T17:21:23;99211.41;;;6.52;100.00
31096;BME280;17749;51.962;8.560;2023-03-12T17:23:50;99206.97;;;6.53;100.00
31096;BME280;17749;51.962;8.560;2023-03-12T17:26:17;99206.22;;;6.49;100.00
31096;BME280;17749;51.962;8.560;2023-03-12T17:28:44;99205.47;;;6.46;100.00
31096;BME280;17749;51.962;8.560;2023-03-12T17:31:11;99218.00;;;6.41;100.00
31096;BME280;17749;51.962;8.560;2023-03-12T17:33:38;99206.69;;;6.37;100.00
31096;BME280;17749;51.962;8.560;2023-03-12T17:36:07;99211.19;;;6.35;100.00
31096;BME280;17749;51.962;8.560;2023-03-12T17:38:35;99209.50;;;6.32;100.00
31096;BME280;17749;51.962;8.560;2023-03-12T17:41:02;99219.22;;;6.32;100.00
31096;BME280;17749;51.962;8.560;2023-03-12T17:43:39;99218.38;;;6.31;100.00
31096;BME280;17749;51.962;8.560;2023-03-12T17:46:08;99212.19;;;6.31;100.00
31096;BME280;17749;51.962;8.560;2023-03-12T17:48:35;99217.38;;;6.34;100.00
31096;BME280;17749;51.962;8.560;2023-03-12T17:51:06;99220.81;;;6.36;100.00
31096;BME280;17749;51.962;8.560;2023-03-12T17:53:33;99223.41;;;6.38;100.00
31096;BME280;17749;51.962;8.560;2023-03-12T17:56:00;99230.25;;;6.43;100.00
31096;BME280;17749;51.962;8.560;2023-03-12T17:58:27;99229.13;;;6.50;100.00
31096;BME280;17749;51.962;8.560;2023-03-12T18:00:54;99226.34;;;6.53;100.00
31096;BME280;17749;51.962;8.560;2023-03-12T18:03:21;99225.22;;;6.61;100.00
31096;BME280;17749;51.962;8.560;2023-03-12T18:05:49;99225.81;;;6.67;100.00
31096;BME280;17749;51.962;8.560;2023-03-12T18:08:16;99239.81;;;6.71;100.00
31096;BME280;17749;51.962;8.560;2023-03-12T18:10:43;99242.09;;;6.80;100.00
31096;BME280;17749;51.962;8.560;2023-03-12T18:13:10;99239.19;;;6.86;100.00
31096;BME280;17749;51.962;8.560;2023-03-12T18:15:37;99250.69;;;6.87;100.00
31096;BME280;17749;51.962;8.560;2023-03-12T18:18:04;99254.88;;;6.92;100.00
31096;BME280;17749;51.962;8.560;2023-03-12T18:20:33;99247.53;;;6.99;100.00
31096;BME280;17749;51.962;8.560;2023-03-12T18:23:05;99257.09;;;7.03;100.00
31096;BME280;17749;51.962;8.560;2023-03-12T18:25:32;99262.25;;;7.06;100.00
31096;BME280;17749;51.962;8.560;2023-03-12T18:27:59;99256.00;;;7.09;100.00
31096;BME280;17749;51.962;8.560;2023-03-12T18:30:27;99254.19;;;7.09;100.00
31096;BME280;17749;51.962;8.560;2023-03-12T18:32:54;99262.91;;;7.13;100.00
31096;BME280;17749;51.962;8.560;2023-03-12T18:35:21;99256.66;;;7.14;100.00
31096;BME280;17749;51.962;8.560;2023-03-12T18:37:48;99258.38;;;7.15;100.00
31096;BME280;17749;51.962;8.560;2023-03-12T18:40:17;99249.66;;;7.13;100.00
31096;BME280;17749;51.962;8.560;2023-03-12T18:42:45;99251.38;;;7.14;100.00
31096;BME280;17749;51.962;8.560;2023-03-12T18:45:12;99252.31;;;7.13;100.00
31096;BME280;17749;51.962;8.560;2023-03-12T18:47:40;99259.31;;;7.14;100.00
31096;BME280;17749;51.962;8.560;2023-03-12T18:50:11;99254.94;;;7.13;100.00
31096;BME280;17749;51.962;8.560;2023-03-12T18:52:38;99261.97;;;7.14;100.00
31096;BME280;17749;51.962;8.560;2023-03-12T18:55:05;99252.22;;;7.14;100.00
31096;BME280;17749;51.962;8.560;2023-03-12T18:57:32;99263.69;;;7.15;100.00
31096;BME280;17749;51.962;8.560;2023-03-12T18:59:59;99261.97;;;7.14;100.00
31096;BME280;17749;51.962;8.560;2023-03-12T19:02:26;99261.97;;;7.14;100.00
31096;BME280;17749;51.962;8.560;2023-03-12T19:04:53;99257.53;;;7.14;100.00
31096;BME280;17749;51.962;8.560;2023-03-12T19:07:21;99263.69;;;7.15;100.00
31096;BME280;17749;51.962;8.560;2023-03-12T19:09:48;99260.97;;;7.16;100.00
31096;BME280;17749;51.962;8.560;2023-03-12T19:12:15;99255.72;;;7.15;100.00
31096;BME280;17749;51.962;8.560;2023-03-12T19:14:42;99256.53;;;7.17;100.00
31096;BME280;17749;51.962;8.560;2023-03-12T19:17:09;99253.00;;;7.18;100.00
31096;BME280;17749;51.962;8.560;2023-03-12T19:19:36;99244.06;;;7.20;100.00
31096;BME280;17749;51.962;8.560;2023-03-12T19:22:03;99246.75;;;7.19;100.00
31096;BME280;17749;51.962;8.560;2023-03-12T19:24:36;99242.28;;;7.21;100.00
31096;BME280;17749;51.962;8.560;2023-03-12T19:27:03;99232.44;;;7.23;100.00
31096;BME280;17749;51.962;8.560;2023-03-12T19:29:30;99234.13;;;7.25;100.00
31096;BME280;17749;51.962;8.560;2023-03-12T19:31:56;99235.00;;;7.26;100.00
31096;BME280;17749;51.962;8.560;2023-03-12T19:34:23;99219.88;;;7.28;100.00
31096;BME280;17749;51.962;8.560;2023-03-12T19:36:50;99227.84;;;7.28;100.00
31096;BME280;17749;51.962;8.560;2023-03-12T19:39:17;99233.13;;;7.28;100.00
31096;BME280;17749;51.962;8.560;2023-03-12T19:41:48;99226.94;;;7.29;100.00
31096;BME280;17749;51.962;8.560;2023-03-12T19:44:15;99232.16;;;7.31;100.00
31096;BME280;17749;51.962;8.560;2023-03-12T19:46:42;99224.28;;;7.29;100.00
31096;BME280;17749;51.962;8.560;2023-03-12T19:49:09;99225.94;;;7.32;100.00
31096;BME280;17749;51.962;8.560;2023-03-12T19:51:36;99218.13;;;7.29;100.00
31096;BME280;17749;51.962;8.560;2023-03-12T19:54:06;99223.28;;;7.32;100.00
31096;BME280;17749;51.962;8.560;2023-03-12T19:56:33;99214.28;;;7.36;100.00
31096;BME280;17749;51.962;8.560;2023-03-12T19:59:00;99206.25;;;7.39;100.00
31096;BME280;17749;51.962;8.560;2023-03-12T20:01:27;99213.28;;;7.38;100.00
31096;BME280;17749;51.962;8.560;2023-03-12T20:03:54;99217.69;;;7.39;100.00
31096;BME280;17749;51.962;8.560;2023-03-12T20:06:21;99216.16;;;7.34;100.00
31096;BME280;17749;51.962;8.560;2023-03-12T20:08:48;99224.16;;;7.32;100.00
31096;BME280;17749;51.962;8.560;2023-03-12T20:11:15;99220.56;;;7.33;100.00
31096;BME280;17749;51.962;8.560;2023-03-12T20:13:44;99229.19;;;7.38;100.00
31096;BME280;17749;51.962;8.560;2023-03-12T20:16:10;99222.03;;;7.40;100.00
31096;BME280;17749;51.962;8.560;2023-03-12T20:18:39;99224.50;;;7.45;100.00
31096;BME280;17749;51.962;8.560;2023-03-12T20:21:06;99230.66;;;7.45;100.00
31096;BME280;17749;51.962;8.560;2023-03-12T20:23:33;99225.22;;;7.49;100.00
31096;BME280;17749;51.962;8.560;2023-03-12T20:26:00;99227.88;;;7.49;100.00
31096;BME280;17749;51.962;8.560;2023-03-12T20:28:27;99224.38;;;7.48;100.00
31096;BME280;17749;51.962;8.560;2023-03-12T20:30:54;99225.22;;;7.49;100.00
31096;BME280;17749;51.962;8.560;2023-03-12T20:33:21;99219.09;;;7.48;100.00
31096;BME280;17749;51.962;8.560;2023-03-12T20:35:48;99220.59;;;7.54;100.00
31096;BME280;17749;51.962;8.560;2023-03-12T20:38:16;99223.44;;;7.49;100.00
31096;BME280;17749;51.962;8.560;2023-03-12T20:40:44;99219.94;;;7.49;100.00
31096;BME280;17749;51.962;8.560;2023-03-12T20:43:11;99220.78;;;7.49;100.00
31096;BME280;17749;51.962;8.560;2023-03-12T20:45:38;99213.66;;;7.51;100.00
31096;BME280;17749;51.962;8.560;2023-03-12T20:48:05;99212.66;;;7.54;100.00
31096;BME280;17749;51.962;8.560;2023-03-12T20:50:36;99209.09;;;7.55;100.00
31096;BME280;17749;51.962;8.560;2023-03-12T20:53:04;99207.22;;;7.57;100.00
31096;BME280;17749;51.962;8.560;2023-03-12T20:55:31;99204.72;;;7.54;100.00
31096;BME280;17749;51.962;8.560;2023-03-12T20:57:58;99206.19;;;7.61;100.00
31096;BME280;17749;51.962;8.560;2023-03-12T21:00:25;99201.81;;;7.60;100.00
31096;BME280;17749;51.962;8.560;2023-03-12T21:02:53;99201.81;;;7.60;100.00
31096;BME280;17749;51.962;8.560;2023-03-12T21:05:20;99189.63;;;7.56;100.00